createdAt,value
2022-10-20T00:01:27.137Z,101257.67
2022-10-20T00:03:56.452Z,101255.11
2022-10-20T00:06:32.251Z,101261.02
2022-10-20T00:09:02.456Z,101260.75
2022-10-20T00:11:31.312Z,101257.99
2022-10-20T00:14:00.677Z,101257.31
2022-10-20T00:16:30.115Z,101256.24
2022-10-20T00:18:58.787Z,101258.27
2022-10-20T00:21:28.639Z,101258.19
2022-10-20T00:23:56.297Z,101258.55
2022-10-20T00:26:26.184Z,101258.73
2022-10-20T00:28:55.350Z,101256.20
2022-10-20T00:31:24.455Z,101252.30
2022-10-20T00:33:52.675Z,101255.02
2022-10-20T00:36:22.771Z,101255.05
2022-10-20T00:38:51.594Z,101249.45
2022-10-20T00:41:21.161Z,101253.02
2022-10-20T00:43:50.539Z,101253.27
2022-10-20T00:46:23.046Z,101253.21
2022-10-20T00:49:06.354Z,101249.58
2022-10-20T00:51:34.992Z,101253.42
2022-10-20T00:54:08.964Z,101255.52
2022-10-20T00:56:42.036Z,101255.11
2022-10-20T00:59:14.114Z,101254.09
2022-10-20T01:01:43.371Z,101246.62
2022-10-20T01:04:11.801Z,101250.52
2022-10-20T01:06:39.656Z,101252.24
2022-10-20T01:09:08.249Z,101244.02
2022-10-20T01:11:51.889Z,101242.11
2022-10-20T01:14:38.591Z,101243.55
2022-10-20T01:17:29.263Z,101238.41
2022-10-20T01:20:29.185Z,101229.74
2022-10-20T01:23:02.819Z,101228.95
2022-10-20T01:25:36.575Z,101231.76
2022-10-20T01:28:09.309Z,101229.37
2022-10-20T01:30:45.878Z,101231.63
2022-10-20T01:36:14.080Z,101233.52
2022-10-20T01:38:53.418Z,101228.68
2022-10-20T01:41:27.723Z,101233.17
2022-10-20T01:43:56.558Z,101230.55
2022-10-20T01:46:26.549Z,101229.06
2022-10-20T01:48:56.506Z,101222.19
2022-10-20T01:51:24.138Z,101220.91
2022-10-20T01:53:51.757Z,101214.24
2022-10-20T01:56:29.288Z,101216.23
2022-10-20T01:59:02.929Z,101213.11
2022-10-20T02:01:50.602Z,101211.93
2022-10-20T02:04:26.901Z,101210.94
2022-10-20T02:07:24.850Z,101211.51
2022-10-20T02:10:00.578Z,101209.12
2022-10-20T02:12:32.728Z,101208.11
2022-10-20T02:15:02.413Z,101203.88
2022-10-20T02:17:30.295Z,101205.30
2022-10-20T02:19:58.838Z,101202.41
2022-10-20T02:22:27.110Z,101200.08
2022-10-20T02:24:54.764Z,101201.95
2022-10-20T02:27:30.461Z,101204.10
2022-10-20T02:30:11.297Z,101191.84
2022-10-20T02:32:41.515Z,101197.17
2022-10-20T02:35:17.818Z,101197.10
2022-10-20T02:37:45.387Z,101199.54
2022-10-20T02:40:13.647Z,101197.70
2022-10-20T02:42:43.271Z,101195.00
2022-10-20T02:45:11.217Z,101195.42
2022-10-20T02:47:39.267Z,101192.57
2022-10-20T02:50:08.474Z,101188.77
2022-10-20T02:52:37.879Z,101191.67
2022-10-20T02:55:06.242Z,101192.59
2022-10-20T02:57:34.477Z,101189.77
2022-10-20T03:00:02.464Z,101194.48
2022-10-20T03:02:30.206Z,101195.65
2022-10-20T03:04:57.808Z,101193.88
2022-10-20T03:07:25.402Z,101195.75
2022-10-20T03:09:53.024Z,101196.66
2022-10-20T03:12:20.681Z,101196.82
2022-10-20T03:14:48.368Z,101198.67
2022-10-20T03:17:16.011Z,101196.73
2022-10-20T03:19:43.686Z,101201.02
2022-10-20T03:22:11.383Z,101200.02
2022-10-20T03:24:39.056Z,101201.14
2022-10-20T03:27:06.935Z,101200.60
2022-10-20T03:29:34.554Z,101201.33
2022-10-20T03:32:02.247Z,101202.33
2022-10-20T03:34:29.840Z,101203.19
2022-10-20T03:36:57.532Z,101208.83
2022-10-20T03:39:25.142Z,101206.23
2022-10-20T03:41:52.822Z,101205.83
2022-10-20T03:44:20.426Z,101212.33
2022-10-20T03:46:48.013Z,101210.86
2022-10-20T03:49:15.928Z,101213.85
2022-10-20T03:51:43.578Z,101214.08
2022-10-20T03:54:11.161Z,101217.55
2022-10-20T03:56:38.781Z,101220.84
2022-10-20T03:59:06.386Z,101218.09
2022-10-20T04:01:35.095Z,101225.48
2022-10-20T04:04:03.214Z,101222.94
2022-10-20T04:06:31.875Z,101222.93
2022-10-20T04:08:59.546Z,101223.05
2022-10-20T04:11:27.431Z,101220.79
2022-10-20T04:13:55.156Z,101222.86
2022-10-20T04:16:22.910Z,101227.40
2022-10-20T04:18:52.326Z,101226.80
2022-10-20T04:21:19.936Z,101230.40
2022-10-20T04:23:47.961Z,101232.92
2022-10-20T04:26:16.364Z,101232.98
2022-10-20T04:28:44.149Z,101232.77
2022-10-20T04:31:11.752Z,101235.40
2022-10-20T04:33:39.380Z,101235.73
2022-10-20T04:36:11.726Z,101232.59
2022-10-20T04:38:39.425Z,101234.40
2022-10-20T04:41:07.148Z,101230.30
2022-10-20T04:43:35.122Z,101232.45
2022-10-20T04:46:07.925Z,101229.29
2022-10-20T04:48:38.089Z,101225.85
2022-10-20T04:51:11.222Z,101226.48
2022-10-20T04:53:39.816Z,101227.30
2022-10-20T04:56:10.350Z,101224.53
2022-10-20T04:58:38.022Z,101226.34
2022-10-20T05:01:13.026Z,101224.71
2022-10-20T05:03:40.669Z,101226.17
2022-10-20T05:06:31.793Z,101223.52
2022-10-20T05:09:03.423Z,101224.45
2022-10-20T05:11:34.042Z,101231.88
2022-10-20T05:14:01.748Z,101235.55
2022-10-20T05:16:29.343Z,101234.42
2022-10-20T05:18:58.012Z,101232.93
2022-10-20T05:21:28.226Z,101234.31
2022-10-20T05:24:01.558Z,101233.42
2022-10-20T05:26:34.427Z,101235.09
2022-10-20T05:29:05.755Z,101231.39
2022-10-20T05:31:37.853Z,101237.60
2022-10-20T05:34:05.524Z,101241.54
2022-10-20T05:36:33.592Z,101246.05
2022-10-20T05:39:01.631Z,101248.98
2022-10-20T05:41:33.518Z,101254.92
2022-10-20T05:44:08.439Z,101251.48
2022-10-20T05:46:43.799Z,101253.19
2022-10-20T05:49:15.231Z,101256.61
2022-10-20T05:51:44.150Z,101263.29
2022-10-20T05:54:27.265Z,101269.54
2022-10-20T05:56:54.890Z,101277.34
2022-10-20T05:59:22.636Z,101274.45
2022-10-20T06:01:50.295Z,101273.02
2022-10-20T06:04:23.424Z,101275.30
2022-10-20T06:06:52.812Z,101274.52
2022-10-20T06:09:21.618Z,101275.39
2022-10-20T06:11:49.258Z,101276.11
2022-10-20T06:14:17.341Z,101279.66
2022-10-20T06:16:45.239Z,101279.77
2022-10-20T06:19:13.624Z,101279.92
2022-10-20T06:24:10.606Z,101276.65
2022-10-20T06:26:39.285Z,101280.50
2022-10-20T06:29:11.322Z,101283.13
2022-10-20T06:31:44.435Z,101284.80
2022-10-20T06:34:19.229Z,101285.97
2022-10-20T06:36:47.685Z,101286.19
2022-10-20T06:39:21.459Z,101285.95
2022-10-20T06:41:54.132Z,101288.92
2022-10-20T06:44:23.895Z,101287.69
2022-10-20T06:46:55.183Z,101291.73
2022-10-20T06:49:23.564Z,101296.06
2022-10-20T06:51:51.255Z,101293.08
2022-10-20T06:54:19.404Z,101297.19
2022-10-20T06:56:47.076Z,101301.33
2022-10-20T06:59:14.672Z,101297.56
2022-10-20T07:01:42.790Z,101297.65
2022-10-20T07:04:14.885Z,101299.91
2022-10-20T07:06:47.032Z,101306.77
2022-10-20T07:09:19.213Z,101303.71
2022-10-20T07:11:51.837Z,101309.67
2022-10-20T07:14:19.962Z,101312.60
2022-10-20T07:16:47.831Z,101315.46
2022-10-20T07:19:15.700Z,101315.18
2022-10-20T07:21:45.624Z,101316.80
2022-10-20T07:24:15.403Z,101318.11
2022-10-20T07:26:43.275Z,101318.43
2022-10-20T07:29:13.000Z,101324.05
2022-10-20T07:31:46.542Z,101328.41
2022-10-20T07:34:26.137Z,101329.54
2022-10-20T07:36:56.357Z,101327.98
2022-10-20T07:39:25.028Z,101332.65
2022-10-20T07:41:52.726Z,101329.67
2022-10-20T07:44:20.508Z,101333.30
2022-10-20T07:46:48.119Z,101333.90
2022-10-20T07:52:03.649Z,101342.45
2022-10-20T07:54:31.938Z,101342.20
2022-10-20T07:56:59.719Z,101342.80
2022-10-20T07:59:28.439Z,101341.98
2022-10-20T08:01:59.618Z,101342.98
2022-10-20T08:04:31.272Z,101340.80
2022-10-20T08:07:01.000Z,101338.48
2022-10-20T08:09:28.925Z,101335.96
2022-10-20T08:11:56.778Z,101340.04
2022-10-20T08:14:27.106Z,101337.39
2022-10-20T08:16:55.700Z,101336.02
2022-10-20T08:19:26.592Z,101333.79
2022-10-20T08:21:54.271Z,101333.70
2022-10-20T08:24:22.280Z,101331.64
2022-10-20T08:26:59.584Z,101332.98
2022-10-20T08:29:27.854Z,101330.70
2022-10-20T08:31:56.799Z,101327.33
2022-10-20T08:34:25.437Z,101326.27
2022-10-20T08:36:54.305Z,101329.09
2022-10-20T08:39:22.035Z,101330.59
2022-10-20T08:42:09.079Z,101326.98
2022-10-20T08:44:40.176Z,101326.41
2022-10-20T08:47:24.859Z,101329.31
2022-10-20T08:49:54.468Z,101330.37
2022-10-20T08:52:25.074Z,101328.98
2022-10-20T08:54:55.478Z,101330.02
2022-10-20T08:57:29.308Z,101323.63
2022-10-20T09:00:18.375Z,101328.98
2022-10-20T09:02:50.647Z,101329.70
2022-10-20T09:05:24.807Z,101330.45
2022-10-20T09:07:54.730Z,101332.06
2022-10-20T09:10:35.182Z,101329.36
2022-10-20T09:13:11.229Z,101332.27
2022-10-20T09:15:40.012Z,101333.52
2022-10-20T09:18:12.179Z,101330.52
2022-10-20T09:20:53.549Z,101330.34
2022-10-20T09:23:42.197Z,101331.75
2022-10-20T09:26:24.944Z,101331.44
2022-10-20T09:29:15.043Z,101331.69
2022-10-20T09:31:53.792Z,101330.47
2022-10-20T09:34:38.123Z,101329.69
2022-10-20T09:37:08.475Z,101336.55
2022-10-20T09:39:56.754Z,101330.98
2022-10-20T09:42:37.104Z,101333.05
2022-10-20T09:45:23.077Z,101330.70
2022-10-20T09:47:56.454Z,101327.15
2022-10-20T09:50:50.973Z,101331.02
2022-10-20T09:53:23.579Z,101328.57
2022-10-20T09:55:52.165Z,101327.41
2022-10-20T09:58:22.828Z,101326.81
2022-10-20T10:01:15.469Z,101326.59
2022-10-20T10:03:45.710Z,101324.14
2022-10-20T10:06:44.028Z,101325.77
2022-10-20T10:09:31.880Z,101321.90
2022-10-20T10:12:20.850Z,101324.27
2022-10-20T10:14:55.033Z,101322.12
2022-10-20T10:17:39.875Z,101319.08
2022-10-20T10:20:29.308Z,101309.16
2022-10-20T10:23:20.727Z,101305.10
2022-10-20T10:25:50.110Z,101304.41
2022-10-20T10:28:35.259Z,101292.35
2022-10-20T10:31:19.906Z,101293.84
2022-10-20T10:33:50.986Z,101295.33
2022-10-20T10:36:28.890Z,101293.34
2022-10-20T10:38:58.497Z,101289.17
2022-10-20T10:41:47.736Z,101287.63
2022-10-20T10:44:15.349Z,101279.04
2022-10-20T10:46:51.808Z,101280.29
2022-10-20T10:49:35.931Z,101275.86
2022-10-20T10:52:22.970Z,101272.00
2022-10-20T10:55:14.273Z,101266.60
2022-10-20T10:58:09.630Z,101263.80
2022-10-20T11:00:59.001Z,101256.93
2022-10-20T11:04:01.056Z,101249.20
2022-10-20T11:06:42.435Z,101241.20
2022-10-20T11:09:30.497Z,101238.60
2022-10-20T11:12:06.797Z,101232.30
2022-10-20T11:14:53.431Z,101233.17
2022-10-20T11:17:46.958Z,101227.48
2022-10-20T11:20:57.039Z,101227.58
2022-10-20T11:23:45.826Z,101228.55
2022-10-20T11:26:25.392Z,101224.88
2022-10-20T11:28:58.163Z,101223.02
2022-10-20T11:31:36.273Z,101223.56
2022-10-20T11:34:22.642Z,101217.69
2022-10-20T11:37:00.457Z,101210.77
2022-10-20T11:39:48.744Z,101215.22
2022-10-20T11:42:28.748Z,101205.95
2022-10-20T11:44:58.902Z,101208.25
2022-10-20T11:47:41.427Z,101205.61
2022-10-20T11:50:13.559Z,101201.70
2022-10-20T11:52:58.977Z,101199.34
2022-10-20T11:55:58.462Z,101200.70
2022-10-20T11:58:54.693Z,101190.84
2022-10-20T12:01:59.074Z,101193.06
2022-10-20T12:04:26.694Z,101191.34
2022-10-20T12:07:06.637Z,101190.20
2022-10-20T12:10:06.213Z,101192.44
2022-10-20T12:12:52.658Z,101192.60
2022-10-20T12:15:25.516Z,101196.13
2022-10-20T12:18:05.901Z,101199.05
2022-10-20T12:20:36.277Z,101195.40
2022-10-20T12:23:04.392Z,101195.41
2022-10-20T12:25:40.300Z,101191.61
2022-10-20T12:28:24.748Z,101191.02
2022-10-20T12:31:01.334Z,101191.91
2022-10-20T12:33:52.661Z,101190.38
2022-10-20T12:36:38.380Z,101185.48
2022-10-20T12:39:12.219Z,101186.33
2022-10-20T12:41:46.429Z,101179.13
2022-10-20T12:44:19.282Z,101174.69
2022-10-20T12:47:07.212Z,101171.36
2022-10-20T12:49:37.904Z,101167.66
2022-10-20T12:52:16.058Z,101164.45
2022-10-20T12:54:48.481Z,101160.98
2022-10-20T12:57:41.296Z,101159.53
2022-10-20T13:00:25.018Z,101161.28
2022-10-20T13:02:59.856Z,101160.25
2022-10-20T13:05:46.122Z,101155.63
2022-10-20T13:08:17.927Z,101155.29
2022-10-20T13:10:46.725Z,101152.69
2022-10-20T13:13:20.308Z,101154.73
2022-10-20T13:15:57.028Z,101148.70
2022-10-20T13:18:38.282Z,101148.70
2022-10-20T13:21:30.710Z,101143.96
2022-10-20T13:24:04.329Z,101144.80
2022-10-20T13:26:39.580Z,101141.77
2022-10-20T13:29:19.821Z,101144.66
2022-10-20T13:32:07.032Z,101143.63
2022-10-20T13:34:47.077Z,101139.14
2022-10-20T13:37:22.689Z,101136.46
2022-10-20T13:40:10.688Z,101137.35
2022-10-20T13:42:45.173Z,101132.30
2022-10-20T13:45:25.758Z,101135.80
2022-10-20T13:48:34.194Z,101136.11
2022-10-20T13:51:19.815Z,101130.81
2022-10-20T13:53:52.892Z,101128.80
2022-10-20T13:56:34.881Z,101127.82
2022-10-20T13:59:06.486Z,101127.97
2022-10-20T14:01:36.510Z,101127.63
2022-10-20T14:04:35.220Z,101125.91
2022-10-20T14:07:13.466Z,101119.25
2022-10-20T14:09:45.452Z,101119.50
2022-10-20T14:12:23.594Z,101119.02
2022-10-20T14:14:51.697Z,101121.64
2022-10-20T14:17:22.459Z,101122.95
2022-10-20T14:19:51.001Z,101119.80
2022-10-20T14:22:23.947Z,101115.57
2022-10-20T14:24:56.052Z,101113.52
2022-10-20T14:27:32.923Z,101109.29
2022-10-20T14:30:05.351Z,101111.84
2022-10-20T14:32:39.027Z,101115.89
2022-10-20T14:35:24.797Z,101114.48
2022-10-20T14:38:03.725Z,101110.45
2022-10-20T14:40:34.794Z,101108.53
2022-10-20T14:43:07.133Z,101108.62
2022-10-20T14:45:34.867Z,101110.60
2022-10-20T14:48:03.155Z,101109.27
2022-10-20T14:50:30.757Z,101108.41
2022-10-20T14:53:16.632Z,101106.80
2022-10-20T14:55:44.456Z,101103.02
2022-10-20T14:58:44.016Z,101095.50
2022-10-20T15:01:31.757Z,101095.16
2022-10-20T15:04:03.713Z,101090.36
2022-10-20T15:06:31.906Z,101086.56
2022-10-20T15:08:59.846Z,101086.63
2022-10-20T15:11:28.258Z,101082.95
2022-10-20T15:13:58.982Z,101083.55
2022-10-20T15:16:42.003Z,101082.45
2022-10-20T15:19:32.862Z,101074.87
2022-10-20T15:24:40.453Z,101071.26
2022-10-20T15:27:15.715Z,101068.41
2022-10-20T15:29:50.107Z,101071.20
2022-10-20T15:32:18.274Z,101066.29
2022-10-20T15:34:45.920Z,101065.67
2022-10-20T15:37:13.503Z,101061.09
2022-10-20T15:39:41.148Z,101062.58
2022-10-20T15:42:11.875Z,101065.00
2022-10-20T15:44:39.465Z,101066.14
2022-10-20T15:47:08.268Z,101063.69
2022-10-20T15:49:35.887Z,101063.67
2022-10-20T15:52:03.744Z,101064.48
2022-10-20T15:54:31.433Z,101060.92
2022-10-20T15:56:59.033Z,101064.02
2022-10-20T15:59:27.476Z,101060.09
2022-10-20T16:01:55.166Z,101054.69
2022-10-20T16:04:26.638Z,101055.83
2022-10-20T16:06:58.833Z,101053.38
2022-10-20T16:09:29.690Z,101058.56
2022-10-20T16:11:57.272Z,101057.77
2022-10-20T16:14:24.962Z,101060.52
2022-10-20T16:16:52.702Z,101060.38
2022-10-20T16:19:20.370Z,101062.33
2022-10-20T16:21:48.022Z,101061.87
2022-10-20T16:24:15.641Z,101062.58
2022-10-20T16:26:43.279Z,101059.02
2022-10-20T16:29:10.869Z,101061.38
2022-10-20T16:31:38.493Z,101061.05
2022-10-20T16:34:06.154Z,101058.72
2022-10-20T16:36:34.799Z,101058.71
2022-10-20T16:39:02.417Z,101055.67
2022-10-20T16:41:30.014Z,101054.21
2022-10-20T16:44:00.905Z,101059.75
2022-10-20T16:46:29.029Z,101065.30
2022-10-20T16:48:57.163Z,101060.63
2022-10-20T16:51:24.952Z,101060.27
2022-10-20T16:53:58.452Z,101060.79
2022-10-20T16:56:30.120Z,101061.23
2022-10-20T16:58:58.089Z,101058.09
2022-10-20T17:01:25.769Z,101057.62
2022-10-20T17:03:53.928Z,101060.98
2022-10-20T17:06:24.306Z,101059.08
2022-10-20T17:08:53.415Z,101052.65
2022-10-20T17:11:27.000Z,101053.90
2022-10-20T17:13:55.951Z,101055.87
2022-10-20T17:16:29.429Z,101052.08
2022-10-20T17:18:59.179Z,101055.92
2022-10-20T17:21:27.912Z,101053.73
2022-10-20T17:23:55.668Z,101052.68
2022-10-20T17:26:26.371Z,101050.98
2022-10-20T17:28:55.599Z,101051.89
2022-10-20T17:31:23.546Z,101052.63
2022-10-20T17:33:51.898Z,101055.05
2022-10-20T17:36:25.661Z,101052.36
2022-10-20T17:38:56.248Z,101052.86
2022-10-20T17:41:24.825Z,101055.35
2022-10-20T17:43:53.390Z,101057.22
2022-10-20T17:46:21.404Z,101054.52
2022-10-20T17:48:49.074Z,101052.38
2022-10-20T17:51:19.887Z,101048.09
2022-10-20T17:53:50.517Z,101047.59
2022-10-20T17:56:23.501Z,101047.87
2022-10-20T17:58:51.976Z,101050.05
2022-10-20T18:01:26.130Z,101045.03
2022-10-20T18:04:02.682Z,101045.77
2022-10-20T18:06:34.457Z,101039.34
2022-10-20T18:09:06.076Z,101038.90
2022-10-20T18:11:35.731Z,101034.42
2022-10-20T18:14:04.856Z,101030.52
2022-10-20T18:16:35.375Z,101032.20
2022-10-20T18:19:03.145Z,101038.61
2022-10-20T18:21:31.880Z,101049.64
2022-10-20T18:24:02.473Z,101046.31
2022-10-20T18:26:32.946Z,101042.31
2022-10-20T18:29:01.938Z,101043.90
2022-10-20T18:31:32.163Z,101046.71
2022-10-20T18:34:07.102Z,101043.06
2022-10-20T18:36:40.323Z,101044.01
2022-10-20T18:39:11.244Z,101039.67
2022-10-20T18:41:40.958Z,101042.08
2022-10-20T18:44:17.867Z,101040.28
2022-10-20T18:46:47.019Z,101035.08
2022-10-20T18:49:19.551Z,101038.54
2022-10-20T18:51:47.678Z,101037.05
2022-10-20T18:54:16.579Z,101038.50
2022-10-20T18:56:45.758Z,101044.44
2022-10-20T18:59:16.437Z,101045.05
2022-10-20T19:01:44.988Z,101048.28
2022-10-20T19:04:13.547Z,101051.46
2022-10-20T19:06:46.983Z,101044.30
2022-10-20T19:09:20.351Z,101042.41
2022-10-20T19:14:17.962Z,101036.03
2022-10-20T19:16:46.943Z,101030.30
2022-10-20T19:19:14.694Z,101028.52
2022-10-20T19:21:42.390Z,101026.66
2022-10-20T19:24:16.529Z,101019.73
2022-10-20T19:26:57.065Z,101022.95
2022-10-20T19:29:30.609Z,101020.50
2022-10-20T19:32:00.866Z,101021.45
2022-10-20T19:34:37.972Z,101020.89
2022-10-20T19:37:07.084Z,101017.23
2022-10-20T19:39:37.732Z,101018.89
2022-10-20T19:42:06.983Z,101020.70
2022-10-20T19:44:35.391Z,101013.73
2022-10-20T19:47:04.880Z,101004.27
2022-10-20T19:49:32.613Z,100995.59
2022-10-20T19:52:00.509Z,100990.06
2022-10-20T19:54:28.864Z,100987.77
2022-10-20T19:56:56.501Z,100985.77
2022-10-20T19:59:24.171Z,100987.16
2022-10-20T20:01:52.603Z,100986.24
2022-10-20T20:04:20.360Z,100988.70
2022-10-20T20:06:48.124Z,100987.86
2022-10-20T20:09:16.018Z,100987.11
2022-10-20T20:11:44.473Z,100984.55
2022-10-20T20:14:14.540Z,100988.02
2022-10-20T20:19:12.461Z,100988.61
2022-10-20T20:21:40.091Z,100987.59
2022-10-20T20:24:07.736Z,100985.23
2022-10-20T20:26:37.037Z,100979.03
2022-10-20T20:29:05.576Z,100968.48
2022-10-20T20:31:33.845Z,100967.20
2022-10-20T20:34:01.523Z,100958.81
2022-10-20T20:36:29.342Z,100957.52
2022-10-20T20:38:58.893Z,100948.05
2022-10-20T20:41:30.142Z,100945.44
2022-10-20T20:43:57.976Z,100942.52
2022-10-20T20:46:29.230Z,100935.17
2022-10-20T20:48:57.888Z,100927.90
2022-10-20T20:51:26.840Z,100925.19
2022-10-20T20:53:57.533Z,100928.33
2022-10-20T20:56:26.983Z,100929.05
2022-10-20T20:58:55.638Z,100928.77
2022-10-20T21:01:29.098Z,100928.20
2022-10-20T21:03:59.085Z,100928.23
2022-10-20T21:06:33.603Z,100924.04
2022-10-20T21:09:02.092Z,100930.40
2022-10-20T21:11:30.183Z,100930.44
2022-10-20T21:13:58.881Z,100925.89
2022-10-20T21:16:30.288Z,100923.55
2022-10-20T21:19:00.506Z,100914.84
2022-10-20T21:21:33.455Z,100912.19
2022-10-20T21:24:03.015Z,100906.55
2022-10-20T21:26:31.600Z,100902.11
2022-10-20T21:28:59.563Z,100901.73
2022-10-20T21:31:28.776Z,100894.33
2022-10-20T21:34:01.559Z,100889.76
2022-10-20T21:36:32.294Z,100885.34
2022-10-20T21:39:00.203Z,100878.49
2022-10-20T21:41:31.292Z,100873.05
2022-10-20T21:44:00.552Z,100866.33
2022-10-20T21:46:34.006Z,100865.14
2022-10-20T21:49:04.665Z,100857.98
2022-10-20T21:51:38.119Z,100855.27
2022-10-20T21:54:10.428Z,100844.31
2022-10-20T21:56:41.163Z,100845.85
2022-10-20T21:59:18.893Z,100845.34
2022-10-20T22:01:48.409Z,100844.20
2022-10-20T22:04:18.652Z,100843.05
2022-10-20T22:06:46.744Z,100840.89
2022-10-20T22:09:15.167Z,100839.62
2022-10-20T22:11:45.558Z,100842.38
2022-10-20T22:14:13.204Z,100852.75
2022-10-20T22:16:42.406Z,100861.00
2022-10-20T22:19:15.934Z,100861.40
2022-10-20T22:21:45.926Z,100864.13
2022-10-20T22:24:14.846Z,100869.02
2022-10-20T22:26:43.154Z,100870.38
2022-10-20T22:29:11.353Z,100870.41
2022-10-20T22:31:40.317Z,100868.32
2022-10-20T22:34:09.366Z,100864.65
2022-10-20T22:36:37.800Z,100864.02
2022-10-20T22:39:06.473Z,100868.48
2022-10-20T22:41:34.284Z,100864.38
2022-10-20T22:44:01.883Z,100868.05
2022-10-20T22:46:29.586Z,100867.85
2022-10-20T22:51:24.928Z,100861.71
2022-10-20T22:53:52.525Z,100867.33
2022-10-20T22:56:22.431Z,100865.89
2022-10-20T22:58:53.034Z,100868.34
2022-10-20T23:01:23.169Z,100860.45
2022-10-20T23:03:51.459Z,100856.48
2022-10-20T23:06:22.647Z,100853.48
2022-10-20T23:08:53.666Z,100862.07
2022-10-20T23:11:22.541Z,100872.12
2022-10-20T23:13:51.052Z,100871.40
2022-10-20T23:16:19.556Z,100863.88
2022-10-20T23:18:47.886Z,100857.16
2022-10-20T23:21:15.906Z,100853.23
2022-10-20T23:23:44.679Z,100858.33
2022-10-20T23:26:13.397Z,100859.15
2022-10-20T23:28:41.220Z,100857.14
2022-10-20T23:31:12.463Z,100855.47
2022-10-20T23:33:41.979Z,100853.45
2022-10-20T23:36:11.702Z,100849.17
2022-10-20T23:38:39.824Z,100845.08
2022-10-20T23:41:07.600Z,100842.63
2022-10-20T23:46:04.102Z,100857.29
2022-10-20T23:48:32.436Z,100860.45
2022-10-20T23:51:00.396Z,100863.14
2022-10-20T23:53:28.122Z,100863.50
2022-10-20T23:55:55.828Z,100859.81
2022-10-20T23:58:23.669Z,100858.16
